sensor_id;sensor_type;location;lat;lon;timestamp;temperature;humidity
72326;DHT22;60278;47.980;18.780;2022-11-20T00:02:59;1.95;97.93
72326;DHT22;60278;47.980;18.780;2022-11-20T00:06:30;1.93;98.18
72326;DHT22;60278;47.980;18.780;2022-11-20T00:10:02;1.94;98.17
72326;DHT22;60278;47.980;18.780;2022-11-20T00:13:33;1.85;97.52
72326;DHT22;60278;47.980;18.780;2022-11-20T00:17:04;2.08;96.25
72326;DHT22;60278;47.980;18.780;2022-11-20T00:20:35;1.81;96.34
72326;DHT22;60278;47.980;18.780;2022-11-20T00:24:08;1.70;96.41
72326;DHT22;60278;47.980;18.780;2022-11-20T00:27:40;1.74;96.60
72326;DHT22;60278;47.980;18.780;2022-11-20T00:31:13;1.66;96.80
72326;DHT22;60278;47.980;18.780;2022-11-20T00:34:45;1.73;96.56
72326;DHT22;60278;47.980;18.780;2022-11-20T00:38:16;1.64;96.70
72326;DHT22;60278;47.980;18.780;2022-11-20T00:41:47;1.47;97.03
72326;DHT22;60278;47.980;18.780;2022-11-20T00:45:18;1.51;96.38
72326;DHT22;60278;47.980;18.780;2022-11-20T00:48:49;1.49;96.52
72326;DHT22;60278;47.980;18.780;2022-11-20T00:52:20;1.39;96.23
72326;DHT22;60278;47.980;18.780;2022-11-20T00:56:00;1.42;96.31
72326;DHT22;60278;47.980;18.780;2022-11-20T00:59:31;1.30;96.69
72326;DHT22;60278;47.980;18.780;2022-11-20T01:03:02;1.32;96.22
72326;DHT22;60278;47.980;18.780;2022-11-20T01:06:36;1.39;95.93
72326;DHT22;60278;47.980;18.780;2022-11-20T01:10:07;1.42;95.97
72326;DHT22;60278;47.980;18.780;2022-11-20T01:13:39;1.59;95.02
72326;DHT22;60278;47.980;18.780;2022-11-20T01:17:11;1.68;94.34
72326;DHT22;60278;47.980;18.780;2022-11-20T01:20:42;1.77;94.57
72326;DHT22;60278;47.980;18.780;2022-11-20T01:24:14;1.70;95.22
72326;DHT22;60278;47.980;18.780;2022-11-20T01:27:46;1.71;95.21
72326;DHT22;60278;47.980;18.780;2022-11-20T01:31:19;1.78;95.21
72326;DHT22;60278;47.980;18.780;2022-11-20T01:34:51;1.87;96.07
72326;DHT22;60278;47.980;18.780;2022-11-20T01:38:22;1.56;97.04
72326;DHT22;60278;47.980;18.780;2022-11-20T01:41:54;1.51;97.59
72326;DHT22;60278;47.980;18.780;2022-11-20T01:45:58;1.66;96.87
72326;DHT22;60278;47.980;18.780;2022-11-20T01:53:07;1.71;97.86
72326;DHT22;60278;47.980;18.780;2022-11-20T01:56:43;1.73;98.26
72326;DHT22;60278;47.980;18.780;2022-11-20T02:00:17;1.73;97.87
72326;DHT22;60278;47.980;18.780;2022-11-20T02:03:49;1.81;98.39
72326;DHT22;60278;47.980;18.780;2022-11-20T02:07:22;1.80;97.90
72326;DHT22;60278;47.980;18.780;2022-11-20T02:10:54;1.71;97.87
72326;DHT22;60278;47.980;18.780;2022-11-20T02:14:26;1.84;96.66
72326;DHT22;60278;47.980;18.780;2022-11-20T02:17:57;1.88;96.40
72326;DHT22;60278;47.980;18.780;2022-11-20T02:25:09;1.84;96.63
72326;DHT22;60278;47.980;18.780;2022-11-20T02:28:40;1.93;95.69
72326;DHT22;60278;47.980;18.780;2022-11-20T02:32:26;1.98;95.20
72326;DHT22;60278;47.980;18.780;2022-11-20T02:35:57;1.85;95.81
72326;DHT22;60278;47.980;18.780;2022-11-20T02:39:28;2.01;95.68
72326;DHT22;60278;47.980;18.780;2022-11-20T02:42:59;2.21;94.67
72326;DHT22;60278;47.980;18.780;2022-11-20T02:46:31;2.33;92.70
72326;DHT22;60278;47.980;18.780;2022-11-20T02:50:03;2.32;92.56
72326;DHT22;60278;47.980;18.780;2022-11-20T02:53:34;2.08;93.68
72326;DHT22;60278;47.980;18.780;2022-11-20T02:57:05;1.93;94.10
72326;DHT22;60278;47.980;18.780;2022-11-20T03:00:36;1.95;93.80
72326;DHT22;60278;47.980;18.780;2022-11-20T03:04:08;1.97;93.91
72326;DHT22;60278;47.980;18.780;2022-11-20T03:07:39;2.24;92.55
72326;DHT22;60278;47.980;18.780;2022-11-20T03:11:10;2.14;93.54
72326;DHT22;60278;47.980;18.780;2022-11-20T03:14:41;1.88;95.42
72326;DHT22;60278;47.980;18.780;2022-11-20T03:18:12;2.01;95.56
72326;DHT22;60278;47.980;18.780;2022-11-20T03:21:44;1.85;95.25
72326;DHT22;60278;47.980;18.780;2022-11-20T03:25:15;1.70;96.02
72326;DHT22;60278;47.980;18.780;2022-11-20T03:28:51;1.56;96.64
72326;DHT22;60278;47.980;18.780;2022-11-20T03:32:22;1.49;97.38
72326;DHT22;60278;47.980;18.780;2022-11-20T03:35:53;1.54;96.93
72326;DHT22;60278;47.980;18.780;2022-11-20T03:39:24;1.78;94.73
72326;DHT22;60278;47.980;18.780;2022-11-20T03:42:56;1.73;93.90
72326;DHT22;60278;47.980;18.780;2022-11-20T03:46:27;1.67;92.75
72326;DHT22;60278;47.980;18.780;2022-11-20T03:49:58;1.75;92.46
72326;DHT22;60278;47.980;18.780;2022-11-20T03:53:29;1.71;92.42
72326;DHT22;60278;47.980;18.780;2022-11-20T03:57:00;1.78;92.32
72326;DHT22;60278;47.980;18.780;2022-11-20T04:00:31;1.80;92.28
72326;DHT22;60278;47.980;18.780;2022-11-20T04:04:03;1.89;91.54
72326;DHT22;60278;47.980;18.780;2022-11-20T04:07:34;1.77;91.56
72326;DHT22;60278;47.980;18.780;2022-11-20T04:11:09;1.71;91.84
72326;DHT22;60278;47.980;18.780;2022-11-20T04:14:41;1.77;91.58
72326;DHT22;60278;47.980;18.780;2022-11-20T04:18:12;1.74;91.32
72326;DHT22;60278;47.980;18.780;2022-11-20T04:21:43;1.54;93.52
72326;DHT22;60278;47.980;18.780;2022-11-20T04:25:15;1.64;92.88
72326;DHT22;60278;47.980;18.780;2022-11-20T04:28:46;1.57;93.31
72326;DHT22;60278;47.980;18.780;2022-11-20T04:32:17;1.54;93.63
72326;DHT22;60278;47.980;18.780;2022-11-20T04:35:48;1.57;93.56
72326;DHT22;60278;47.980;18.780;2022-11-20T04:39:19;1.71;92.71
72326;DHT22;60278;47.980;18.780;2022-11-20T04:42:50;1.56;94.27
72326;DHT22;60278;47.980;18.780;2022-11-20T04:46:21;1.95;92.90
72326;DHT22;60278;47.980;18.780;2022-11-20T04:49:52;1.98;93.18
72326;DHT22;60278;47.980;18.780;2022-11-20T04:53:23;1.89;93.02
72326;DHT22;60278;47.980;18.780;2022-11-20T04:56:55;1.67;93.97
72326;DHT22;60278;47.980;18.780;2022-11-20T05:00:26;1.73;94.77
72326;DHT22;60278;47.980;18.780;2022-11-20T05:03:57;2.02;93.01
72326;DHT22;60278;47.980;18.780;2022-11-20T05:07:28;1.67;95.16
72326;DHT22;60278;47.980;18.780;2022-11-20T05:11:08;1.57;95.57
72326;DHT22;60278;47.980;18.780;2022-11-20T05:14:39;1.53;95.23
72326;DHT22;60278;47.980;18.780;2022-11-20T05:18:10;1.78;92.80
72326;DHT22;60278;47.980;18.780;2022-11-20T05:21:41;1.80;93.12
72326;DHT22;60278;47.980;18.780;2022-11-20T05:25:12;1.73;93.88
72326;DHT22;60278;47.980;18.780;2022-11-20T05:28:43;1.97;91.93
72326;DHT22;60278;47.980;18.780;2022-11-20T05:32:15;1.94;91.58
72326;DHT22;60278;47.980;18.780;2022-11-20T05:35:46;1.85;93.39
72326;DHT22;60278;47.980;18.780;2022-11-20T05:39:17;1.59;94.74
72326;DHT22;60278;47.980;18.780;2022-11-20T05:42:48;1.54;95.00
72326;DHT22;60278;47.980;18.780;2022-11-20T05:46:20;1.60;94.88
72326;DHT22;60278;47.980;18.780;2022-11-20T05:49:51;1.47;96.12
72326;DHT22;60278;47.980;18.780;2022-11-20T05:53:23;1.56;96.28
72326;DHT22;60278;47.980;18.780;2022-11-20T05:56:53;1.35;96.09
72326;DHT22;60278;47.980;18.780;2022-11-20T06:00:24;1.51;96.38
72326;DHT22;60278;47.980;18.780;2022-11-20T06:03:56;1.59;97.16
72326;DHT22;60278;47.980;18.780;2022-11-20T06:07:27;1.82;95.83
72326;DHT22;60278;47.980;18.780;2022-11-20T06:10:58;1.88;95.11
72326;DHT22;60278;47.980;18.780;2022-11-20T06:14:29;1.54;96.51
72326;DHT22;60278;47.980;18.780;2022-11-20T06:18:00;1.51;97.08
72326;DHT22;60278;47.980;18.780;2022-11-20T06:21:31;1.89;96.65
72326;DHT22;60278;47.980;18.780;2022-11-20T06:25:02;1.73;95.91
72326;DHT22;60278;47.980;18.780;2022-11-20T06:28:33;1.71;96.64
72326;DHT22;60278;47.980;18.780;2022-11-20T06:32:04;1.89;95.58
72326;DHT22;60278;47.980;18.780;2022-11-20T06:35:35;2.28;93.86
72326;DHT22;60278;47.980;18.780;2022-11-20T06:39:06;2.28;93.61
72326;DHT22;60278;47.980;18.780;2022-11-20T06:42:37;2.17;94.78
72326;DHT22;60278;47.980;18.780;2022-11-20T06:46:12;2.39;94.32
72326;DHT22;60278;47.980;18.780;2022-11-20T06:49:44;2.57;93.61
72326;DHT22;60278;47.980;18.780;2022-11-20T06:53:15;2.33;93.75
72326;DHT22;60278;47.980;18.780;2022-11-20T06:56:49;2.39;93.98
72326;DHT22;60278;47.980;18.780;2022-11-20T07:00:20;2.17;94.80
72326;DHT22;60278;47.980;18.780;2022-11-20T07:03:51;2.38;95.70
72326;DHT22;60278;47.980;18.780;2022-11-20T07:07:22;2.52;94.52
72326;DHT22;60278;47.980;18.780;2022-11-20T07:10:57;2.38;95.36
72326;DHT22;60278;47.980;18.780;2022-11-20T07:14:28;2.45;95.00
72326;DHT22;60278;47.980;18.780;2022-11-20T07:18:00;2.45;94.81
72326;DHT22;60278;47.980;18.780;2022-11-20T07:21:31;2.26;94.80
72326;DHT22;60278;47.980;18.780;2022-11-20T07:25:03;2.43;94.39
72326;DHT22;60278;47.980;18.780;2022-11-20T07:28:35;2.33;94.81
72326;DHT22;60278;47.980;18.780;2022-11-20T07:32:06;2.52;94.31
72326;DHT22;60278;47.980;18.780;2022-11-20T07:35:37;2.48;94.23
72326;DHT22;60278;47.980;18.780;2022-11-20T07:39:08;2.49;94.43
72326;DHT22;60278;47.980;18.780;2022-11-20T07:42:39;2.43;94.61
72326;DHT22;60278;47.980;18.780;2022-11-20T07:46:10;2.35;95.17
72326;DHT22;60278;47.980;18.780;2022-11-20T07:49:41;2.38;94.24
72326;DHT22;60278;47.980;18.780;2022-11-20T07:53:12;2.36;94.23
72326;DHT22;60278;47.980;18.780;2022-11-20T07:56:44;2.45;95.03
72326;DHT22;60278;47.980;18.780;2022-11-20T08:00:15;2.46;94.13
72326;DHT22;60278;47.980;18.780;2022-11-20T08:03:46;2.61;94.53
72326;DHT22;60278;47.980;18.780;2022-11-20T08:07:17;2.56;94.45
72326;DHT22;60278;47.980;18.780;2022-11-20T08:10:48;2.75;95.21
72326;DHT22;60278;47.980;18.780;2022-11-20T08:14:19;2.72;93.86
72326;DHT22;60278;47.980;18.780;2022-11-20T08:17:50;2.63;92.46
72326;DHT22;60278;47.980;18.780;2022-11-20T08:21:21;2.66;93.06
72326;DHT22;60278;47.980;18.780;2022-11-20T08:24:52;2.73;92.96
72326;DHT22;60278;47.980;18.780;2022-11-20T08:28:23;2.70;92.67
72326;DHT22;60278;47.980;18.780;2022-11-20T08:31:54;2.97;93.11
72326;DHT22;60278;47.980;18.780;2022-11-20T08:35:25;3.05;92.58
72326;DHT22;60278;47.980;18.780;2022-11-20T08:38:56;2.93;93.48
72326;DHT22;60278;47.980;18.780;2022-11-20T08:42:27;3.11;91.96
72326;DHT22;60278;47.980;18.780;2022-11-20T08:45:58;3.04;91.74
72326;DHT22;60278;47.980;18.780;2022-11-20T08:49:29;2.93;91.10
72326;DHT22;60278;47.980;18.780;2022-11-20T08:53:04;3.03;91.77
72326;DHT22;60278;47.980;18.780;2022-11-20T08:56:35;3.14;91.26
72326;DHT22;60278;47.980;18.780;2022-11-20T09:00:07;3.22;90.84
72326;DHT22;60278;47.980;18.780;2022-11-20T09:03:39;3.17;90.46
72326;DHT22;60278;47.980;18.780;2022-11-20T09:07:10;3.08;90.67
72326;DHT22;60278;47.980;18.780;2022-11-20T09:10:41;3.24;90.37
72326;DHT22;60278;47.980;18.780;2022-11-20T09:14:13;3.17;90.04
72326;DHT22;60278;47.980;18.780;2022-11-20T09:17:51;3.17;91.39
72326;DHT22;60278;47.980;18.780;2022-11-20T09:21:22;3.28;90.45
72326;DHT22;60278;47.980;18.780;2022-11-20T09:24:54;3.49;90.06
72326;DHT22;60278;47.980;18.780;2022-11-20T09:28:26;3.28;88.97
72326;DHT22;60278;47.980;18.780;2022-11-20T09:31:57;3.46;89.51
72326;DHT22;60278;47.980;18.780;2022-11-20T09:35:28;3.52;88.99
72326;DHT22;60278;47.980;18.780;2022-11-20T09:38:59;3.79;88.62
72326;DHT22;60278;47.980;18.780;2022-11-20T09:42:37;3.96;89.00
72326;DHT22;60278;47.980;18.780;2022-11-20T09:46:29;3.75;87.88
72326;DHT22;60278;47.980;18.780;2022-11-20T09:50:31;4.09;87.58
72326;DHT22;60278;47.980;18.780;2022-11-20T09:54:18;4.25;87.17
72326;DHT22;60278;47.980;18.780;2022-11-20T09:57:51;4.14;87.56
72326;DHT22;60278;47.980;18.780;2022-11-20T10:01:26;4.31;87.73
72326;DHT22;60278;47.980;18.780;2022-11-20T10:05:19;4.51;86.34
72326;DHT22;60278;47.980;18.780;2022-11-20T10:09:25;4.81;86.58
72326;DHT22;60278;47.980;18.780;2022-11-20T10:13:10;4.81;85.49
72326;DHT22;60278;47.980;18.780;2022-11-20T10:17:19;5.16;87.25
72326;DHT22;60278;47.980;18.780;2022-11-20T10:20:56;5.16;85.40
72326;DHT22;60278;47.980;18.780;2022-11-20T10:28:27;5.16;85.01
72326;DHT22;60278;47.980;18.780;2022-11-20T10:32:04;5.22;86.93
72326;DHT22;60278;47.980;18.780;2022-11-20T10:35:44;5.08;86.61
72326;DHT22;60278;47.980;18.780;2022-11-20T10:43:35;5.46;84.84
72326;DHT22;60278;47.980;18.780;2022-11-20T10:47:17;4.99;86.19
72326;DHT22;60278;47.980;18.780;2022-11-20T11:02:01;5.29;84.93
72326;DHT22;60278;47.980;18.780;2022-11-20T11:06:03;5.87;83.05
72326;DHT22;60278;47.980;18.780;2022-11-20T11:09:55;6.13;80.74
72326;DHT22;60278;47.980;18.780;2022-11-20T11:13:30;6.12;80.59
72326;DHT22;60278;47.980;18.780;2022-11-20T11:17:01;6.16;81.47
72326;DHT22;60278;47.980;18.780;2022-11-20T11:20:32;5.82;81.15
72326;DHT22;60278;47.980;18.780;2022-11-20T11:24:04;5.82;81.91
72326;DHT22;60278;47.980;18.780;2022-11-20T11:27:45;6.28;82.51
72326;DHT22;60278;47.980;18.780;2022-11-20T11:31:34;5.61;81.77
72326;DHT22;60278;47.980;18.780;2022-11-20T11:35:11;6.05;82.93
72326;DHT22;60278;47.980;18.780;2022-11-20T11:38:51;6.26;83.51
72326;DHT22;60278;47.980;18.780;2022-11-20T11:42:23;6.09;81.94
72326;DHT22;60278;47.980;18.780;2022-11-20T11:45:55;5.99;81.29
72326;DHT22;60278;47.980;18.780;2022-11-20T11:49:26;6.02;83.22
72326;DHT22;60278;47.980;18.780;2022-11-20T11:53:15;5.91;82.47
72326;DHT22;60278;47.980;18.780;2022-11-20T11:56:48;5.97;82.05
72326;DHT22;60278;47.980;18.780;2022-11-20T12:00:20;5.67;83.56
72326;DHT22;60278;47.980;18.780;2022-11-20T12:04:16;5.74;83.56
72326;DHT22;60278;47.980;18.780;2022-11-20T12:07:57;5.79;84.68
72326;DHT22;60278;47.980;18.780;2022-11-20T12:11:34;5.81;82.90
72326;DHT22;60278;47.980;18.780;2022-11-20T12:15:15;5.82;83.52
72326;DHT22;60278;47.980;18.780;2022-11-20T12:18:51;6.05;82.53
72326;DHT22;60278;47.980;18.780;2022-11-20T12:22:48;6.18;84.06
72326;DHT22;60278;47.980;18.780;2022-11-20T12:30:19;6.92;82.65
72326;DHT22;60278;47.980;18.780;2022-11-20T12:34:02;6.73;82.37
72326;DHT22;60278;47.980;18.780;2022-11-20T12:46:17;6.43;83.68
72326;DHT22;60278;47.980;18.780;2022-11-20T12:49:55;6.43;83.47
72326;DHT22;60278;47.980;18.780;2022-11-20T12:53:38;6.47;83.31
72326;DHT22;60278;47.980;18.780;2022-11-20T12:57:41;6.36;84.38
72326;DHT22;60278;47.980;18.780;2022-11-20T13:01:25;6.26;83.94
72326;DHT22;60278;47.980;18.780;2022-11-20T13:09:12;6.28;84.17
72326;DHT22;60278;47.980;18.780;2022-11-20T13:12:46;6.13;84.39
72326;DHT22;60278;47.980;18.780;2022-11-20T13:16:30;6.13;84.15
72326;DHT22;60278;47.980;18.780;2022-11-20T13:20:09;5.97;86.16
72326;DHT22;60278;47.980;18.780;2022-11-20T13:23:43;5.90;85.32
72326;DHT22;60278;47.980;18.780;2022-11-20T13:30:50;5.82;86.54
72326;DHT22;60278;47.980;18.780;2022-11-20T13:34:26;5.57;86.67
72326;DHT22;60278;47.980;18.780;2022-11-20T13:41:34;5.54;86.90
72326;DHT22;60278;47.980;18.780;2022-11-20T13:45:25;5.58;86.32
72326;DHT22;60278;47.980;18.780;2022-11-20T13:48:57;5.75;86.67
72326;DHT22;60278;47.980;18.780;2022-11-20T13:56:43;5.68;86.60
72326;DHT22;60278;47.980;18.780;2022-11-20T14:00:21;5.58;86.68
72326;DHT22;60278;47.980;18.780;2022-11-20T14:03:53;5.87;85.20
72326;DHT22;60278;47.980;18.780;2022-11-20T14:07:31;5.68;86.01
72326;DHT22;60278;47.980;18.780;2022-11-20T14:11:29;5.61;87.36
72326;DHT22;60278;47.980;18.780;2022-11-20T14:15:01;5.65;86.89
72326;DHT22;60278;47.980;18.780;2022-11-20T14:18:32;5.55;87.87
72326;DHT22;60278;47.980;18.780;2022-11-20T14:22:15;5.52;86.70
72326;DHT22;60278;47.980;18.780;2022-11-20T14:25:49;5.39;88.89
72326;DHT22;60278;47.980;18.780;2022-11-20T14:29:23;5.22;88.27
72326;DHT22;60278;47.980;18.780;2022-11-20T14:33:01;5.24;87.77
72326;DHT22;60278;47.980;18.780;2022-11-20T14:36:32;5.19;88.15
72326;DHT22;60278;47.980;18.780;2022-11-20T14:40:42;5.12;88.39
72326;DHT22;60278;47.980;18.780;2022-11-20T14:44:14;5.24;87.87
72326;DHT22;60278;47.980;18.780;2022-11-20T14:47:45;5.02;89.38
72326;DHT22;60278;47.980;18.780;2022-11-20T14:55:02;4.89;89.89
72326;DHT22;60278;47.980;18.780;2022-11-20T14:58:34;4.90;90.07
72326;DHT22;60278;47.980;18.780;2022-11-20T15:02:09;4.72;90.55
72326;DHT22;60278;47.980;18.780;2022-11-20T15:05:47;4.72;90.06
72326;DHT22;60278;47.980;18.780;2022-11-20T15:09:18;4.57;91.86
72326;DHT22;60278;47.980;18.780;2022-11-20T15:13:00;4.65;91.79
72326;DHT22;60278;47.980;18.780;2022-11-20T15:16:32;4.54;92.08
72326;DHT22;60278;47.980;18.780;2022-11-20T15:20:11;4.20;92.79
72326;DHT22;60278;47.980;18.780;2022-11-20T15:23:43;4.18;91.84
72326;DHT22;60278;47.980;18.780;2022-11-20T15:27:15;4.20;91.99
72326;DHT22;60278;47.980;18.780;2022-11-20T15:30:47;4.03;92.31
72326;DHT22;60278;47.980;18.780;2022-11-20T15:34:18;3.93;92.69
72326;DHT22;60278;47.980;18.780;2022-11-20T15:37:49;3.91;93.45
72326;DHT22;60278;47.980;18.780;2022-11-20T15:41:20;3.91;92.66
72326;DHT22;60278;47.980;18.780;2022-11-20T15:44:51;3.89;93.67
72326;DHT22;60278;47.980;18.780;2022-11-20T15:48:59;3.72;93.58
72326;DHT22;60278;47.980;18.780;2022-11-20T15:52:22;3.42;93.95
72326;DHT22;60278;47.980;18.780;2022-11-20T15:55:53;3.45;94.14
72326;DHT22;60278;47.980;18.780;2022-11-20T15:59:24;3.56;93.57
72326;DHT22;60278;47.980;18.780;2022-11-20T16:02:55;3.60;92.87
72326;DHT22;60278;47.980;18.780;2022-11-20T16:06:26;3.48;93.40
72326;DHT22;60278;47.980;18.780;2022-11-20T16:09:57;3.08;95.11
72326;DHT22;60278;47.980;18.780;2022-11-20T16:13:30;2.93;95.03
72326;DHT22;60278;47.980;18.780;2022-11-20T16:17:20;2.79;95.46
72326;DHT22;60278;47.980;18.780;2022-11-20T16:21:11;2.63;96.04
72326;DHT22;60278;47.980;18.780;2022-11-20T16:24:44;2.53;96.61
72326;DHT22;60278;47.980;18.780;2022-11-20T16:28:16;2.33;97.20
72326;DHT22;60278;47.980;18.780;2022-11-20T16:31:48;2.32;96.17
72326;DHT22;60278;47.980;18.780;2022-11-20T16:35:19;2.40;95.96
72326;DHT22;60278;47.980;18.780;2022-11-20T16:38:54;2.22;96.06
72326;DHT22;60278;47.980;18.780;2022-11-20T16:42:26;1.99;96.80
72326;DHT22;60278;47.980;18.780;2022-11-20T16:45:57;1.97;97.28
72326;DHT22;60278;47.980;18.780;2022-11-20T16:49:28;2.07;96.24
72326;DHT22;60278;47.980;18.780;2022-11-20T16:52:59;2.05;95.59
72326;DHT22;60278;47.980;18.780;2022-11-20T16:56:30;2.09;95.69
72326;DHT22;60278;47.980;18.780;2022-11-20T17:00:02;1.84;96.66
72326;DHT22;60278;47.980;18.780;2022-11-20T17:03:33;2.04;96.60
72326;DHT22;60278;47.980;18.780;2022-11-20T17:07:04;1.87;96.29
72326;DHT22;60278;47.980;18.780;2022-11-20T17:10:35;2.15;95.16
72326;DHT22;60278;47.980;18.780;2022-11-20T17:14:07;1.93;95.73
72326;DHT22;60278;47.980;18.780;2022-11-20T17:17:38;2.04;94.73
72326;DHT22;60278;47.980;18.780;2022-11-20T17:21:10;1.81;95.15
72326;DHT22;60278;47.980;18.780;2022-11-20T17:24:41;1.95;94.35
72326;DHT22;60278;47.980;18.780;2022-11-20T17:28:12;1.97;94.65
72326;DHT22;60278;47.980;18.780;2022-11-20T17:31:44;2.08;94.83
72326;DHT22;60278;47.980;18.780;2022-11-20T17:35:15;1.80;96.73
72326;DHT22;60278;47.980;18.780;2022-11-20T17:38:46;1.57;97.20
72326;DHT22;60278;47.980;18.780;2022-11-20T17:42:17;1.32;97.86
72326;DHT22;60278;47.980;18.780;2022-11-20T17:45:59;1.25;97.90
72326;DHT22;60278;47.980;18.780;2022-11-20T17:49:30;1.28;98.01
72326;DHT22;60278;47.980;18.780;2022-11-20T17:53:01;1.28;97.28
72326;DHT22;60278;47.980;18.780;2022-11-20T17:56:33;0.81;97.08
72326;DHT22;60278;47.980;18.780;2022-11-20T18:00:23;0.82;97.53
72326;DHT22;60278;47.980;18.780;2022-11-20T18:03:55;0.92;98.14
72326;DHT22;60278;47.980;18.780;2022-11-20T18:07:27;0.62;98.28
72326;DHT22;60278;47.980;18.780;2022-11-20T18:10:58;0.43;98.73
72326;DHT22;60278;47.980;18.780;2022-11-20T18:14:29;0.60;98.96
72326;DHT22;60278;47.980;18.780;2022-11-20T18:18:04;0.67;97.61
72326;DHT22;60278;47.980;18.780;2022-11-20T18:21:35;0.92;96.92
72326;DHT22;60278;47.980;18.780;2022-11-20T18:25:06;0.79;97.28
72326;DHT22;60278;47.980;18.780;2022-11-20T18:28:38;0.64;98.76
72326;DHT22;60278;47.980;18.780;2022-11-20T18:32:09;0.78;97.71
72326;DHT22;60278;47.980;18.780;2022-11-20T18:35:40;0.64;97.36
72326;DHT22;60278;47.980;18.780;2022-11-20T18:39:13;0.78;97.30
72326;DHT22;60278;47.980;18.780;2022-11-20T18:42:44;0.85;96.84
72326;DHT22;60278;47.980;18.780;2022-11-20T18:46:34;0.65;96.82
72326;DHT22;60278;47.980;18.780;2022-11-20T18:50:07;0.67;96.34
72326;DHT22;60278;47.980;18.780;2022-11-20T18:53:38;0.54;96.60
72326;DHT22;60278;47.980;18.780;2022-11-20T18:57:09;0.47;96.94
72326;DHT22;60278;47.980;18.780;2022-11-20T19:00:44;0.44;97.41
72326;DHT22;60278;47.980;18.780;2022-11-20T19:04:16;0.54;98.62
72326;DHT22;60278;47.980;18.780;2022-11-20T19:07:47;0.64;98.01
72326;DHT22;60278;47.980;18.780;2022-11-20T19:11:18;0.30;98.39
72326;DHT22;60278;47.980;18.780;2022-11-20T19:14:50;0.27;98.61
72326;DHT22;60278;47.980;18.780;2022-11-20T19:18:21;0.21;98.82
72326;DHT22;60278;47.980;18.780;2022-11-20T19:21:52;0.03;98.44
72326;DHT22;60278;47.980;18.780;2022-11-20T19:25:23;0.07;98.76
72326;DHT22;60278;47.980;18.780;2022-11-20T19:28:54;-0.01;99.09
72326;DHT22;60278;47.980;18.780;2022-11-20T19:32:25;-0.07;98.48
72326;DHT22;60278;47.980;18.780;2022-11-20T19:35:57;-0.03;98.95
72326;DHT22;60278;47.980;18.780;2022-11-20T19:39:28;0.50;96.58
72326;DHT22;60278;47.980;18.780;2022-11-20T19:42:59;0.69;96.04
72326;DHT22;60278;47.980;18.780;2022-11-20T19:46:32;0.43;96.74
72326;DHT22;60278;47.980;18.780;2022-11-20T19:50:04;0.51;97.52
72326;DHT22;60278;47.980;18.780;2022-11-20T19:53:35;0.61;97.81
72326;DHT22;60278;47.980;18.780;2022-11-20T19:57:06;0.58;95.94
72326;DHT22;60278;47.980;18.780;2022-11-20T20:00:37;0.58;96.07
72326;DHT22;60278;47.980;18.780;2022-11-20T20:04:08;0.47;96.83
72326;DHT22;60278;47.980;18.780;2022-11-20T20:07:39;0.34;97.26
72326;DHT22;60278;47.980;18.780;2022-11-20T20:11:16;0.11;98.67
72326;DHT22;60278;47.980;18.780;2022-11-20T20:14:48;0.20;97.86
72326;DHT22;60278;47.980;18.780;2022-11-20T20:18:19;0.14;98.12
72326;DHT22;60278;47.980;18.780;2022-11-20T20:21:50;0.02;98.99
72326;DHT22;60278;47.980;18.780;2022-11-20T20:25:21;-0.08;99.97
72326;DHT22;60278;47.980;18.780;2022-11-20T20:28:52;-0.01;99.78
72326;DHT22;60278;47.980;18.780;2022-11-20T20:32:23;0.09;98.41
72326;DHT22;60278;47.980;18.780;2022-11-20T20:35:54;0.05;98.30
72326;DHT22;60278;47.980;18.780;2022-11-20T20:39:25;0.10;98.41
72326;DHT22;60278;47.980;18.780;2022-11-20T20:42:58;-0.03;98.59
72326;DHT22;60278;47.980;18.780;2022-11-20T20:46:30;-0.35;97.98
72326;DHT22;60278;47.980;18.780;2022-11-20T20:50:03;-0.12;96.96
72326;DHT22;60278;47.980;18.780;2022-11-20T20:53:34;-0.14;96.96
72326;DHT22;60278;47.980;18.780;2022-11-20T20:57:06;-0.12;97.32
72326;DHT22;60278;47.980;18.780;2022-11-20T21:00:38;-0.15;98.24
72326;DHT22;60278;47.980;18.780;2022-11-20T21:04:09;-0.12;98.41
72326;DHT22;60278;47.980;18.780;2022-11-20T21:07:41;-0.12;98.06
72326;DHT22;60278;47.980;18.780;2022-11-20T21:11:30;-0.17;98.24
72326;DHT22;60278;47.980;18.780;2022-11-20T21:15:01;-0.26;97.92
72326;DHT22;60278;47.980;18.780;2022-11-20T21:18:33;-0.25;98.01
72326;DHT22;60278;47.980;18.780;2022-11-20T21:22:04;-0.07;98.35
72326;DHT22;60278;47.980;18.780;2022-11-20T21:25:36;0.09;97.28
72326;DHT22;60278;47.980;18.780;2022-11-20T21:29:08;-0.03;98.19
72326;DHT22;60278;47.980;18.780;2022-11-20T21:32:39;-0.19;98.40
72326;DHT22;60278;47.980;18.780;2022-11-20T21:36:18;-0.38;99.26
72326;DHT22;60278;47.980;18.780;2022-11-20T21:39:49;-0.18;98.02
72326;DHT22;60278;47.980;18.780;2022-11-20T21:43:21;-0.07;97.17
72326;DHT22;60278;47.980;18.780;2022-11-20T21:46:52;-0.28;97.76
72326;DHT22;60278;47.980;18.780;2022-11-20T21:50:23;-0.21;97.68
72326;DHT22;60278;47.980;18.780;2022-11-20T21:53:55;-0.07;96.14
72326;DHT22;60278;47.980;18.780;2022-11-20T21:57:26;-0.14;96.69
72326;DHT22;60278;47.980;18.780;2022-11-20T22:00:57;-0.33;97.38
72326;DHT22;60278;47.980;18.780;2022-11-20T22:04:28;-0.38;96.66
72326;DHT22;60278;47.980;18.780;2022-11-20T22:08:00;-0.14;96.38
72326;DHT22;60278;47.980;18.780;2022-11-20T22:11:31;-0.17;95.72
72326;DHT22;60278;47.980;18.780;2022-11-20T22:15:02;-0.26;96.84
72326;DHT22;60278;47.980;18.780;2022-11-20T22:18:34;-0.33;96.61
72326;DHT22;60278;47.980;18.780;2022-11-20T22:22:05;-0.29;96.64
72326;DHT22;60278;47.980;18.780;2022-11-20T22:25:36;-0.38;96.82
72326;DHT22;60278;47.980;18.780;2022-11-20T22:29:13;-0.56;98.30
72326;DHT22;60278;47.980;18.780;2022-11-20T22:32:44;-0.46;97.76
72326;DHT22;60278;47.980;18.780;2022-11-20T22:36:24;-0.62;98.47
72326;DHT22;60278;47.980;18.780;2022-11-20T22:39:55;-0.59;99.04
72326;DHT22;60278;47.980;18.780;2022-11-20T22:43:26;-0.33;96.92
72326;DHT22;60278;47.980;18.780;2022-11-20T22:46:57;-0.39;96.73
72326;DHT22;60278;47.980;18.780;2022-11-20T22:50:28;-0.33;97.29
72326;DHT22;60278;47.980;18.780;2022-11-20T22:54:00;-0.33;98.12
72326;DHT22;60278;47.980;18.780;2022-11-20T22:57:33;-0.38;98.82
72326;DHT22;60278;47.980;18.780;2022-11-20T23:01:11;-0.33;99.16
72326;DHT22;60278;47.980;18.780;2022-11-20T23:04:42;-0.33;98.66
72326;DHT22;60278;47.980;18.780;2022-11-20T23:08:13;-0.22;97.82
72326;DHT22;60278;47.980;18.780;2022-11-20T23:11:44;-0.17;97.27
72326;DHT22;60278;47.980;18.780;2022-11-20T23:15:15;-0.21;97.33
72326;DHT22;60278;47.980;18.780;2022-11-20T23:18:46;-0.39;97.68
72326;DHT22;60278;47.980;18.780;2022-11-20T23:22:17;-0.58;99.08
72326;DHT22;60278;47.980;18.780;2022-11-20T23:25:48;-0.29;96.99
72326;DHT22;60278;47.980;18.780;2022-11-20T23:29:19;-0.45;97.49